ESGT/THN METAR and TAF weather

Enter ICAO airport designator
Station Type Date Time Source
ESGT METAR 2021/02/27 20:50 UTC NOAA

ESGT 272050Z AUTO 20005KT 8000 OVC003/// 02/01 Q1031


Station Type Date Time Source
ESGT Decoded METAR 2021/02/27 20:50 UTC NOAA

Trollhattan Private , Sweden (ESGT) 58-19N 012-21E
Feb 27, 2021 - 03:50 PM EST / 2021.02.27 2050 UTC
Wind: from the SSW (200 degrees) at 6 MPH (5 KT):0
Visibility: 4 mile(s):0
Sky conditions: overcast
Temperature: 35 F (2 C)
Windchill: 30 F (-1 C):1
Dew Point: 33 F (1 C)
Relative Humidity: 93%
Pressure (altimeter): 30.45 in. Hg (1031 hPa)
ob: ESGT 272050Z AUTO 20005KT 8000 OVC003/// 02/01 Q1031
cycle: 21

Station Type Date Time Source
ESGT TAF 2016/08/12 05:58 UTC NOAA

TAF ESGT 120430Z 1205/1224 18007KT 9999 FEW030

Example: see airport list